Time;durP1;ratioP1;P1;durP2;ratioP2;P2;SDS_P1;SDS_P2;PMS_P1;PMS_P2;Temp;Humidity;BMP_temperature;BMP_pressure;BME280_temperature;BME280_humidity;BME280_pressure;Samples;Min_cycle;Max_cycle;Signal;HPM_P1;HPM_P2
2023/05/20 00:00:49;;;;;;;12.80;2.20;;;;;;;;;;5028517;28;20477;-79
2023/05/20 00:03:15;;;;;;;4.53;1.80;;;;;;;;;;5033467;28;20485;-79
2023/05/20 00:05:41;;;;;;;4.43;1.77;;;;;;;;;;5033155;28;20470;-79
2023/05/20 00:08:09;;;;;;;2.33;1.43;;;;;;;;;;5029536;28;20974;-79
2023/05/20 00:10:36;;;;;;;3.47;1.70;;;;;;;;;;5028389;28;20484;-79
2023/05/20 00:13:02;;;;;;;2.23;1.87;;;;;;;;;;5023013;28;20441;-79
2023/05/20 00:15:30;;;;;;;1.60;1.50;;;;;;;;;;5019645;28;20472;-79
2023/05/20 00:17:57;;;;;;;3.43;1.90;;;;;;;;;;5031067;28;20465;-79
2023/05/20 00:20:24;;;;;;;3.43;1.60;;;;;;;;;;5034435;28;20836;-79
2023/05/20 00:22:50;;;;;;;2.17;1.60;;;;;;;;;;5025708;28;20484;-79
2023/05/20 00:25:17;;;;;;;4.03;2.03;;;;;;;;;;5029435;28;20464;-79
2023/05/20 00:27:43;;;;;;;3.30;1.70;;;;;;;;;;5027335;28;20461;-79
2023/05/20 00:30:10;;;;;;;1.53;1.27;;;;;;;;;;5023393;28;20461;-79
2023/05/20 00:32:38;;;;;;;2.83;1.67;;;;;;;;;;5013370;28;20461;-79
2023/05/20 00:35:05;;;;;;;2.10;1.60;;;;;;;;;;5014560;28;20472;-79
2023/05/20 00:37:31;;;;;;;3.63;2.17;;;;;;;;;;5026941;28;20465;-79
2023/05/20 00:39:59;;;;;;;4.27;2.10;;;;;;;;;;5016457;28;20469;-79
2023/05/20 00:42:26;;;;;;;2.30;1.73;;;;;;;;;;5032621;28;20997;-79
2023/05/20 00:44:53;;;;;;;6.73;2.10;;;;;;;;;;5011895;28;20465;-79
2023/05/20 00:47:20;;;;;;;4.03;2.40;;;;;;;;;;5028891;28;20473;-79
2023/05/20 00:49:49;;;;;;;4.10;1.50;;;;;;;;;;5029178;28;20480;-79
2023/05/20 00:52:17;;;;;;;4.53;1.73;;;;;;;;;;5025833;28;20943;-79
2023/05/20 00:54:43;;;;;;;5.33;2.00;;;;;;;;;;5027192;28;20465;-79
2023/05/20 00:57:11;;;;;;;1.80;1.27;;;;;;;;;;5028618;28;20810;-79
2023/05/20 00:59:37;;;;;;;4.63;2.00;;;;;;;;;;5033358;28;20469;-78
2023/05/20 01:02:04;;;;;;;3.40;1.67;;;;;;;;;;5030500;28;20449;-79
2023/05/20 01:04:31;;;;;;;2.10;1.63;;;;;;;;;;5029405;28;20469;-79
2023/05/20 01:07:01;;;;;;;1.83;1.53;;;;;;;;;;5025845;28;20481;-79
2023/05/20 01:09:29;;;;;;;2.10;1.60;;;;;;;;;;5030503;28;21269;-79
2023/05/20 01:12:01;;;;;;;1.83;1.50;;;;;;;;;;5030877;28;20453;-79
2023/05/20 01:14:29;;;;;;;1.90;1.57;;;;;;;;;;5012919;28;20473;-80
2023/05/20 01:16:57;;;;;;;2.90;1.90;;;;;;;;;;5014933;28;20476;-79
2023/05/20 01:19:29;;;;;;;2.40;1.57;;;;;;;;;;5030915;28;20527;-79
2023/05/20 01:21:56;;;;;;;2.93;1.40;;;;;;;;;;5027951;28;20448;-79
2023/05/20 01:24:24;;;;;;;2.40;1.40;;;;;;;;;;5027734;28;20482;-79
2023/05/20 01:26:50;;;;;;;3.27;1.77;;;;;;;;;;5031088;28;20492;-79
2023/05/20 01:29:17;;;;;;;3.73;2.03;;;;;;;;;;5025703;28;20477;-79
2023/05/20 01:31:44;;;;;;;3.57;1.47;;;;;;;;;;5031657;28;20510;-79
2023/05/20 01:34:10;;;;;;;2.10;1.70;;;;;;;;;;5033232;28;20491;-79
2023/05/20 01:36:37;;;;;;;2.67;1.93;;;;;;;;;;5020718;28;20799;-79
2023/05/20 01:39:06;;;;;;;2.60;1.77;;;;;;;;;;5024336;28;20469;-79
2023/05/20 01:41:35;;;;;;;1.87;1.50;;;;;;;;;;5027653;28;20451;-79
2023/05/20 01:44:02;;;;;;;3.83;1.90;;;;;;;;;;5022028;28;20473;-79
2023/05/20 01:46:32;;;;;;;1.70;1.50;;;;;;;;;;5026161;28;20444;-79
2023/05/20 01:48:58;;;;;;;4.47;1.50;;;;;;;;;;5027182;28;20970;-79
2023/05/20 01:51:24;;;;;;;2.60;1.80;;;;;;;;;;5030517;28;20453;-79
2023/05/20 01:53:52;;;;;;;3.77;1.90;;;;;;;;;;5020442;28;20456;-79
2023/05/20 01:56:18;;;;;;;1.70;1.60;;;;;;;;;;5028541;28;20449;-79
2023/05/20 01:58:46;;;;;;;2.50;1.67;;;;;;;;;;5013459;28;20468;-79
2023/05/20 02:01:14;;;;;;;1.57;1.47;;;;;;;;;;5030245;28;20815;-79
2023/05/20 02:03:40;;;;;;;4.00;1.97;;;;;;;;;;5028256;28;20486;-79
2023/05/20 02:06:07;;;;;;;2.30;1.50;;;;;;;;;;5012163;28;20456;-79
2023/05/20 02:08:33;;;;;;;2.20;1.40;;;;;;;;;;5028729;28;20990;-79
2023/05/20 02:10:59;;;;;;;2.03;1.33;;;;;;;;;;5026341;28;21005;-79
2023/05/20 02:13:26;;;;;;;1.30;1.20;;;;;;;;;;5019462;28;20450;-79
2023/05/20 02:15:54;;;;;;;2.80;1.60;;;;;;;;;;5005999;28;20483;-79
2023/05/20 02:18:20;;;;;;;3.13;1.70;;;;;;;;;;5037011;28;20548;-79
2023/05/20 02:20:46;;;;;;;1.60;1.40;;;;;;;;;;5027067;28;20472;-79
2023/05/20 02:23:13;;;;;;;3.47;1.60;;;;;;;;;;5001018;28;21135;-79
2023/05/20 02:25:40;;;;;;;2.07;1.70;;;;;;;;;;5026235;28;20982;-79
2023/05/20 02:28:09;;;;;;;1.80;1.60;;;;;;;;;;5026944;28;20476;-79
2023/05/20 02:30:35;;;;;;;2.90;1.60;;;;;;;;;;5031690;28;20478;-79
2023/05/20 02:33:03;;;;;;;3.43;1.40;;;;;;;;;;5024072;28;20448;-79
2023/05/20 02:35:29;;;;;;;1.83;1.30;;;;;;;;;;5023246;28;20976;-79
2023/05/20 02:37:56;;;;;;;2.90;1.90;;;;;;;;;;5032944;28;20469;-79
2023/05/20 02:40:23;;;;;;;6.77;1.53;;;;;;;;;;5013225;28;20527;-79
2023/05/20 02:42:49;;;;;;;2.90;1.53;;;;;;;;;;5022405;28;20490;-79
2023/05/20 02:45:15;;;;;;;3.80;1.50;;;;;;;;;;5031209;28;20564;-79
2023/05/20 02:47:42;;;;;;;2.03;1.43;;;;;;;;;;5028201;28;20481;-79
2023/05/20 02:50:10;;;;;;;2.60;1.40;;;;;;;;;;5025988;28;21014;-79
2023/05/20 02:52:36;;;;;;;4.83;1.47;;;;;;;;;;5029206;28;20463;-79
2023/05/20 02:55:03;;;;;;;1.50;1.40;;;;;;;;;;5031540;28;20488;-79
2023/05/20 02:57:30;;;;;;;2.37;1.80;;;;;;;;;;5029841;28;20467;-79
2023/05/20 02:59:56;;;;;;;1.70;1.33;;;;;;;;;;5028930;28;20480;-79
2023/05/20 03:02:23;;;;;;;2.10;1.60;;;;;;;;;;5032413;28;20451;-79
2023/05/20 03:04:52;;;;;;;4.23;1.23;;;;;;;;;;5041059;28;20472;-79
2023/05/20 03:07:21;;;;;;;1.47;1.27;;;;;;;;;;5024391;28;20487;-79
2023/05/20 03:09:47;;;;;;;2.30;1.30;;;;;;;;;;5036079;28;20526;-79
2023/05/20 03:12:14;;;;;;;2.50;1.70;;;;;;;;;;5029479;28;20441;-79
2023/05/20 03:14:40;;;;;;;1.40;1.30;;;;;;;;;;5016224;28;20472;-79
2023/05/20 03:17:06;;;;;;;1.53;1.43;;;;;;;;;;5034731;28;20480;-79
2023/05/20 03:19:33;;;;;;;2.27;1.50;;;;;;;;;;5031182;28;20479;-79
2023/05/20 03:21:59;;;;;;;2.47;1.53;;;;;;;;;;5032553;28;20452;-79
2023/05/20 03:24:27;;;;;;;1.80;1.50;;;;;;;;;;5032818;28;20531;-79
2023/05/20 03:26:53;;;;;;;1.47;1.33;;;;;;;;;;5035556;28;20464;-79
2023/05/20 03:29:20;;;;;;;1.30;1.20;;;;;;;;;;5026836;28;20469;-79
2023/05/20 03:31:46;;;;;;;3.30;1.50;;;;;;;;;;5029454;28;20483;-79
2023/05/20 03:34:13;;;;;;;6.43;2.37;;;;;;;;;;5034673;28;20476;-79
2023/05/20 03:36:39;;;;;;;2.30;1.20;;;;;;;;;;5035386;28;20445;-79
2023/05/20 03:39:05;;;;;;;2.03;1.17;;;;;;;;;;5033251;28;20480;-79
2023/05/20 03:41:33;;;;;;;2.30;1.60;;;;;;;;;;5034413;28;20447;-79
2023/05/20 03:44:03;;;;;;;1.53;1.43;;;;;;;;;;5026568;28;20934;-79
2023/05/20 03:46:31;;;;;;;2.97;1.30;;;;;;;;;;5011726;28;20442;-79
2023/05/20 03:48:58;;;;;;;5.60;2.50;;;;;;;;;;5023775;28;20453;-79
2023/05/20 03:51:25;;;;;;;2.90;2.10;;;;;;;;;;5031507;28;20445;-79
2023/05/20 03:53:52;;;;;;;1.83;1.70;;;;;;;;;;5032856;28;20449;-79
2023/05/20 03:56:18;;;;;;;1.53;1.23;;;;;;;;;;5026281;28;20449;-79
2023/05/20 03:58:46;;;;;;;4.70;1.80;;;;;;;;;;5034132;28;20472;-79
2023/05/20 04:01:13;;;;;;;3.63;1.60;;;;;;;;;;5032612;28;20444;-79
2023/05/20 04:03:42;;;;;;;3.17;1.50;;;;;;;;;;5030460;28;20506;-80
2023/05/20 04:06:09;;;;;;;2.73;1.57;;;;;;;;;;5033333;28;20445;-79
2023/05/20 04:08:35;;;;;;;5.53;1.40;;;;;;;;;;5025024;28;20480;-79
2023/05/20 04:11:02;;;;;;;3.17;1.80;;;;;;;;;;5031831;28;20465;-79
2023/05/20 04:13:28;;;;;;;2.70;1.43;;;;;;;;;;5010527;28;20457;-79
2023/05/20 04:15:56;;;;;;;1.83;1.20;;;;;;;;;;5026606;28;20492;-79
2023/05/20 04:18:22;;;;;;;2.87;1.53;;;;;;;;;;5028392;28;20468;-79
2023/05/20 04:20:49;;;;;;;6.40;1.80;;;;;;;;;;5020517;28;20844;-79
2023/05/20 04:23:15;;;;;;;1.50;1.30;;;;;;;;;;5023247;28;20452;-79
2023/05/20 04:25:43;;;;;;;1.53;1.10;;;;;;;;;;5030055;28;20472;-79
2023/05/20 04:28:12;;;;;;;1.90;1.40;;;;;;;;;;5028835;28;20522;-79
2023/05/20 04:30:41;;;;;;;1.20;1.10;;;;;;;;;;5025791;28;20532;-79
2023/05/20 04:33:09;;;;;;;1.70;1.37;;;;;;;;;;5032743;28;20452;-79
2023/05/20 04:35:36;;;;;;;2.93;1.40;;;;;;;;;;5034329;28;20500;-79
2023/05/20 04:38:02;;;;;;;1.27;1.17;;;;;;;;;;5032811;28;20962;-79
2023/05/20 04:40:29;;;;;;;1.40;1.23;;;;;;;;;;5026922;28;20469;-79
2023/05/20 04:42:57;;;;;;;1.97;1.67;;;;;;;;;;5024110;28;20974;-79
2023/05/20 04:45:23;;;;;;;4.90;1.30;;;;;;;;;;5022843;28;20903;-79
2023/05/20 04:47:52;;;;;;;2.07;1.53;;;;;;;;;;5029180;28;20551;-79
2023/05/20 04:50:20;;;;;;;1.73;1.30;;;;;;;;;;5025376;28;20476;-79
2023/05/20 04:52:46;;;;;;;1.90;1.47;;;;;;;;;;5023331;28;20441;-79
2023/05/20 04:55:14;;;;;;;1.60;1.30;;;;;;;;;;5030441;28;20858;-79
2023/05/20 04:57:41;;;;;;;2.43;1.20;;;;;;;;;;5028274;28;20501;-79
2023/05/20 05:00:08;;;;;;;2.70;1.60;;;;;;;;;;5022004;28;20524;-79
2023/05/20 05:02:35;;;;;;;1.43;1.30;;;;;;;;;;5031826;28;20540;-79
2023/05/20 05:05:01;;;;;;;3.33;1.57;;;;;;;;;;5028186;28;20477;-79
2023/05/20 05:07:29;;;;;;;4.83;1.50;;;;;;;;;;5013190;28;20484;-79
2023/05/20 05:09:55;;;;;;;4.10;1.80;;;;;;;;;;5026988;28;20503;-79
2023/05/20 05:12:22;;;;;;;1.50;1.33;;;;;;;;;;5033997;28;20445;-79
2023/05/20 05:14:49;;;;;;;2.67;1.40;;;;;;;;;;5032814;28;20485;-79
2023/05/20 05:17:15;;;;;;;5.63;2.10;;;;;;;;;;5032813;28;20473;-79
2023/05/20 05:19:42;;;;;;;3.67;1.47;;;;;;;;;;5026919;28;20482;-79
2023/05/20 05:22:08;;;;;;;3.30;1.50;;;;;;;;;;5033194;28;20445;-79
2023/05/20 05:24:36;;;;;;;2.20;1.33;;;;;;;;;;5033419;28;20473;-79
2023/05/20 05:27:02;;;;;;;3.70;1.70;;;;;;;;;;5033342;28;20822;-79
2023/05/20 05:29:30;;;;;;;2.60;1.70;;;;;;;;;;5033108;28;20480;-79
2023/05/20 05:31:56;;;;;;;8.47;1.90;;;;;;;;;;5030692;28;20456;-79
2023/05/20 05:34:23;;;;;;;4.10;1.67;;;;;;;;;;5029933;28;20828;-79
2023/05/20 05:36:49;;;;;;;3.03;1.90;;;;;;;;;;5032918;28;20448;-79
2023/05/20 05:39:16;;;;;;;2.13;1.70;;;;;;;;;;5031323;28;20472;-79
2023/05/20 05:41:43;;;;;;;2.03;1.87;;;;;;;;;;5032456;28;20444;-79
2023/05/20 05:44:10;;;;;;;2.80;1.80;;;;;;;;;;5018684;28;20515;-79
2023/05/20 05:46:36;;;;;;;6.50;2.43;;;;;;;;;;5002863;28;20441;-79
2023/05/20 05:49:06;;;;;;;2.87;1.60;;;;;;;;;;5030060;28;20851;-79
2023/05/20 05:51:32;;;;;;;1.40;1.30;;;;;;;;;;5033532;28;20441;-79
2023/05/20 05:53:59;;;;;;;3.00;1.90;;;;;;;;;;5028360;28;20479;-79
2023/05/20 05:56:25;;;;;;;2.40;1.60;;;;;;;;;;5033271;28;20449;-79
2023/05/20 05:58:53;;;;;;;2.53;2.00;;;;;;;;;;5020224;28;20464;-79
2023/05/20 06:01:19;;;;;;;2.53;1.80;;;;;;;;;;5018859;28;20440;-79
2023/05/20 06:03:45;;;;;;;1.77;1.60;;;;;;;;;;5010266;28;20865;-79
2023/05/20 06:06:12;;;;;;;2.90;1.70;;;;;;;;;;5029284;28;20464;-79
2023/05/20 06:08:38;;;;;;;3.20;2.20;;;;;;;;;;5025547;28;20469;-79
2023/05/20 06:11:05;;;;;;;3.57;1.73;;;;;;;;;;5030960;28;20967;-79
2023/05/20 06:13:31;;;;;;;3.77;2.30;;;;;;;;;;5022074;28;20515;-79
2023/05/20 06:15:59;;;;;;;2.70;1.83;;;;;;;;;;5012788;28;20519;-79
2023/05/20 06:18:25;;;;;;;2.73;2.20;;;;;;;;;;5032991;28;20469;-79
2023/05/20 06:20:54;;;;;;;7.60;2.20;;;;;;;;;;5025345;28;20993;-79
2023/05/20 06:23:21;;;;;;;5.27;2.00;;;;;;;;;;5013711;28;20453;-79
2023/05/20 06:25:47;;;;;;;4.37;2.23;;;;;;;;;;5029200;28;20469;-79
2023/05/20 06:28:14;;;;;;;7.07;1.90;;;;;;;;;;5030407;28;20970;-79
2023/05/20 06:30:41;;;;;;;2.00;1.80;;;;;;;;;;5026066;28;20469;-79
2023/05/20 06:33:10;;;;;;;3.90;2.40;;;;;;;;;;5031200;28;20956;-79
2023/05/20 06:35:36;;;;;;;4.40;1.87;;;;;;;;;;5032191;28;20488;-79
2023/05/20 06:38:03;;;;;;;2.90;2.23;;;;;;;;;;5029598;28;20480;-79
2023/05/20 06:40:30;;;;;;;2.20;2.00;;;;;;;;;;5029050;28;20472;-79
2023/05/20 06:42:57;;;;;;;4.30;2.40;;;;;;;;;;5032264;28;20949;-79
2023/05/20 06:45:23;;;;;;;5.20;2.90;;;;;;;;;;5021643;28;20480;-79
2023/05/20 06:47:49;;;;;;;6.73;3.03;;;;;;;;;;5031131;28;20461;-79
2023/05/20 06:50:18;;;;;;;6.13;2.30;;;;;;;;;;5014448;28;20473;-79
2023/05/20 06:52:44;;;;;;;3.40;1.90;;;;;;;;;;5027755;28;20827;-79
2023/05/20 06:55:12;;;;;;;3.00;2.10;;;;;;;;;;5032103;28;20467;-79
2023/05/20 06:57:38;;;;;;;3.30;2.57;;;;;;;;;;5029966;28;20443;-79
2023/05/20 07:00:05;;;;;;;3.57;2.10;;;;;;;;;;5034405;28;20447;-79
2023/05/20 07:02:33;;;;;;;3.17;2.83;;;;;;;;;;5024329;28;20445;-79
2023/05/20 07:05:01;;;;;;;2.70;2.03;;;;;;;;;;5030318;28;20472;-78
2023/05/20 07:07:29;;;;;;;6.90;2.37;;;;;;;;;;5029969;28;20534;-79
2023/05/20 07:09:55;;;;;;;3.00;2.40;;;;;;;;;;5027942;28;20481;-79
2023/05/20 07:12:22;;;;;;;2.57;2.37;;;;;;;;;;5024162;28;20453;-79
2023/05/20 07:14:48;;;;;;;5.60;3.40;;;;;;;;;;5030623;28;20443;-79
2023/05/20 07:17:15;;;;;;;4.30;2.50;;;;;;;;;;5030099;28;20454;-79
2023/05/20 07:19:41;;;;;;;3.70;2.20;;;;;;;;;;5026528;28;20446;-78
2023/05/20 07:22:08;;;;;;;2.97;2.40;;;;;;;;;;5027865;28;20952;-79
2023/05/20 07:24:36;;;;;;;4.63;2.50;;;;;;;;;;5020929;28;20478;-79
2023/05/20 07:27:03;;;;;;;3.77;2.40;;;;;;;;;;5026935;28;20461;-79
2023/05/20 07:29:29;;;;;;;3.97;2.70;;;;;;;;;;5019208;28;20465;-79
2023/05/20 07:31:55;;;;;;;2.57;2.27;;;;;;;;;;5023422;28;20460;-79
2023/05/20 07:34:22;;;;;;;4.63;2.43;;;;;;;;;;5026040;28;20440;-79
2023/05/20 07:36:50;;;;;;;3.70;2.80;;;;;;;;;;5022908;28;20424;-79
2023/05/20 07:39:16;;;;;;;2.97;2.67;;;;;;;;;;5028777;28;20447;-79
2023/05/20 07:41:44;;;;;;;3.40;3.00;;;;;;;;;;5029805;28;20927;-79
2023/05/20 07:44:11;;;;;;;6.90;2.60;;;;;;;;;;5032136;28;20436;-79
2023/05/20 07:46:39;;;;;;;4.67;3.83;;;;;;;;;;5034735;28;20971;-78
2023/05/20 07:49:05;;;;;;;3.20;2.90;;;;;;;;;;5027683;28;20472;-79
2023/05/20 07:51:31;;;;;;;3.13;2.83;;;;;;;;;;5016025;28;20426;-79
2023/05/20 07:53:58;;;;;;;4.30;2.73;;;;;;;;;;5032245;28;20547;-79
2023/05/20 07:56:24;;;;;;;3.23;2.93;;;;;;;;;;5030976;28;20448;-79
2023/05/20 07:58:57;;;;;;;3.47;2.80;;;;;;;;;;5011979;28;20470;-79
2023/05/20 08:01:24;;;;;;;4.23;3.00;;;;;;;;;;5032679;28;20535;-79
2023/05/20 08:03:50;;;;;;;5.90;3.10;;;;;;;;;;5013029;28;20423;-79
2023/05/20 08:06:19;;;;;;;7.17;3.30;;;;;;;;;;5031213;28;20487;-78
2023/05/20 08:08:46;;;;;;;5.10;2.73;;;;;;;;;;5017002;28;20483;-79
2023/05/20 08:11:12;;;;;;;2.63;2.40;;;;;;;;;;5020093;28;20448;-79
2023/05/20 08:13:39;;;;;;;3.80;3.27;;;;;;;;;;5028697;28;20441;-80
2023/05/20 08:16:06;;;;;;;5.30;3.30;;;;;;;;;;5032796;28;20545;-79
2023/05/20 08:18:35;;;;;;;3.57;2.90;;;;;;;;;;5030696;28;20461;-79
2023/05/20 08:21:01;;;;;;;4.53;2.40;;;;;;;;;;5035489;28;20472;-79
2023/05/20 08:23:28;;;;;;;3.40;2.90;;;;;;;;;;5026555;28;20437;-80
2023/05/20 08:25:54;;;;;;;5.40;2.97;;;;;;;;;;5032493;28;20472;-79
2023/05/20 08:28:20;;;;;;;4.57;3.40;;;;;;;;;;5033524;28;20501;-79
2023/05/20 08:30:47;;;;;;;4.00;3.60;;;;;;;;;;5032312;28;20469;-79
2023/05/20 08:33:15;;;;;;;6.20;3.17;;;;;;;;;;5029562;28;20996;-79
2023/05/20 08:35:41;;;;;;;5.50;3.23;;;;;;;;;;5013751;28;20488;-79
2023/05/20 08:38:08;;;;;;;7.10;2.83;;;;;;;;;;5030504;28;20826;-79
2023/05/20 08:40:34;;;;;;;3.20;2.50;;;;;;;;;;5031246;28;20465;-79
2023/05/20 08:43:01;;;;;;;4.20;3.30;;;;;;;;;;5031983;28;20459;-79
2023/05/20 08:45:30;;;;;;;4.03;2.97;;;;;;;;;;5026068;28;20480;-79
2023/05/20 08:47:57;;;;;;;5.50;3.07;;;;;;;;;;5029117;28;20466;-79
2023/05/20 08:50:25;;;;;;;6.03;3.23;;;;;;;;;;5029627;28;20472;-79
2023/05/20 08:52:51;;;;;;;4.17;2.97;;;;;;;;;;5029595;28;20989;-79
2023/05/20 08:55:21;;;;;;;4.53;3.50;;;;;;;;;;5027516;28;20979;-79
2023/05/20 08:57:48;;;;;;;4.53;2.70;;;;;;;;;;5028510;28;20917;-79
2023/05/20 09:00:15;;;;;;;3.17;2.87;;;;;;;;;;5018894;28;20473;-80
2023/05/20 09:02:42;;;;;;;4.80;3.10;;;;;;;;;;5025005;28;20824;-79
2023/05/20 09:05:10;;;;;;;7.00;3.20;;;;;;;;;;5031377;28;20855;-79
2023/05/20 09:07:38;;;;;;;5.07;3.40;;;;;;;;;;5031854;28;20994;-79
2023/05/20 09:10:07;;;;;;;3.73;2.77;;;;;;;;;;5010607;28;20472;-80
2023/05/20 09:12:33;;;;;;;5.80;3.00;;;;;;;;;;5031509;28;20544;-80
2023/05/20 09:15:00;;;;;;;5.10;3.70;;;;;;;;;;5030875;28;20470;-80
2023/05/20 09:17:26;;;;;;;4.50;2.60;;;;;;;;;;5034427;28;20471;-79
2023/05/20 09:19:53;;;;;;;4.07;3.03;;;;;;;;;;5032042;28;20479;-80
2023/05/20 09:22:24;;;;;;;10.70;2.00;;;;;;;;;;5028116;28;20445;-79
2023/05/20 09:24:52;;;;;;;2.73;2.43;;;;;;;;;;5024016;28;20478;-79
2023/05/20 09:27:18;;;;;;;3.73;2.37;;;;;;;;;;5030568;28;20473;-79
2023/05/20 09:29:47;;;;;;;3.77;2.53;;;;;;;;;;5028191;28;20854;-79
2023/05/20 09:32:13;;;;;;;4.97;2.33;;;;;;;;;;5028212;28;20447;-80
2023/05/20 09:34:41;;;;;;;6.70;2.53;;;;;;;;;;5031241;28;20487;-79
2023/05/20 09:37:08;;;;;;;6.20;2.53;;;;;;;;;;5029351;28;20468;-79
2023/05/20 09:39:39;;;;;;;4.77;2.37;;;;;;;;;;4990387;28;20468;-80
2023/05/20 09:42:12;;;;;;;2.67;2.10;;;;;;;;;;5008630;28;20533;-79
2023/05/20 09:44:38;;;;;;;4.03;2.43;;;;;;;;;;5026205;28;20485;-80
2023/05/20 09:47:06;;;;;;;5.67;2.63;;;;;;;;;;5025304;28;20576;-79
2023/05/20 09:49:33;;;;;;;4.13;2.30;;;;;;;;;;5019709;28;20531;-79
2023/05/20 09:52:01;;;;;;;3.17;1.93;;;;;;;;;;5033858;28;20456;-79
2023/05/20 09:54:27;;;;;;;2.47;1.80;;;;;;;;;;5031149;28;20472;-79
2023/05/20 09:56:54;;;;;;;4.60;2.23;;;;;;;;;;5033356;28;20464;-78
2023/05/20 09:59:23;;;;;;;2.70;2.33;;;;;;;;;;5031026;28;20472;-78
2023/05/20 10:01:49;;;;;;;3.10;2.17;;;;;;;;;;5025720;28;20456;-78
2023/05/20 10:04:17;;;;;;;5.57;2.77;;;;;;;;;;5025498;28;20473;-78
2023/05/20 10:06:56;;;;;;;4.93;2.17;;;;;;;;;;5013891;28;20477;-78
2023/05/20 10:09:35;;;;;;;8.13;2.60;;;;;;;;;;5027380;28;20471;-78
2023/05/20 10:12:05;;;;;;;2.33;2.10;;;;;;;;;;5033572;28;20598;-80
2023/05/20 10:14:40;;;;;;;4.40;2.33;;;;;;;;;;5027620;28;20473;-80
2023/05/20 10:17:10;;;;;;;2.77;2.53;;;;;;;;;;5027988;28;20468;-79
2023/05/20 10:19:37;;;;;;;3.50;2.20;;;;;;;;;;5012133;28;20478;-80
2023/05/20 10:22:04;;;;;;;4.37;2.50;;;;;;;;;;5030303;28;20456;-79
2023/05/20 10:24:32;;;;;;;20.47;3.93;;;;;;;;;;5025556;28;20465;-79
2023/05/20 10:27:00;;;;;;;4.70;2.17;;;;;;;;;;5031195;28;20495;-79
2023/05/20 10:29:26;;;;;;;3.60;2.60;;;;;;;;;;5026751;28;20515;-81
2023/05/20 10:31:55;;;;;;;3.07;2.40;;;;;;;;;;5019058;28;20454;-80
2023/05/20 10:34:22;;;;;;;7.23;2.80;;;;;;;;;;5028421;28;20982;-79
2023/05/20 10:36:57;;;;;;;4.90;1.80;;;;;;;;;;5018696;28;20448;-79
2023/05/20 10:39:26;;;;;;;2.47;2.27;;;;;;;;;;5032232;28;20479;-78
2023/05/20 10:41:53;;;;;;;3.60;2.20;;;;;;;;;;5031420;28;20448;-78
2023/05/20 10:44:19;;;;;;;5.00;2.93;;;;;;;;;;5032270;28;20854;-78
2023/05/20 10:46:46;;;;;;;4.73;2.30;;;;;;;;;;5013319;28;20485;-78
2023/05/20 10:49:19;;;;;;;3.87;2.50;;;;;;;;;;5012651;28;21009;-79
2023/05/20 10:51:46;;;;;;;4.23;1.97;;;;;;;;;;5032912;28;20451;-78
2023/05/20 10:54:13;;;;;;;2.90;2.40;;;;;;;;;;5031863;28;20527;-78
2023/05/20 10:56:51;;;;;;;2.60;2.07;;;;;;;;;;5028589;28;20456;-78
2023/05/20 10:59:17;;;;;;;4.20;2.63;;;;;;;;;;5025217;28;20462;-78
2023/05/20 11:01:46;;;;;;;2.73;2.30;;;;;;;;;;5031486;28;20451;-78
2023/05/20 11:04:13;;;;;;;4.53;3.13;;;;;;;;;;5022340;28;20470;-78
2023/05/20 11:06:49;;;;;;;2.57;1.97;;;;;;;;;;5028774;28;20568;-78
2023/05/20 11:09:16;;;;;;;3.13;1.90;;;;;;;;;;5030577;28;20468;-80
2023/05/20 11:11:42;;;;;;;2.70;2.03;;;;;;;;;;5032275;28;20444;-79
2023/05/20 11:14:12;;;;;;;2.60;2.07;;;;;;;;;;5028438;28;20476;-78
2023/05/20 11:16:38;;;;;;;5.33;2.30;;;;;;;;;;5030102;28;20947;-79
2023/05/20 11:19:06;;;;;;;6.33;2.20;;;;;;;;;;5026100;28;20460;-78
2023/05/20 11:21:33;;;;;;;4.30;2.33;;;;;;;;;;5027868;28;20452;-79
2023/05/20 11:24:00;;;;;;;2.50;2.13;;;;;;;;;;5023584;28;20480;-80
2023/05/20 11:26:29;;;;;;;3.23;2.50;;;;;;;;;;5005520;28;20539;-80
2023/05/20 11:28:56;;;;;;;2.70;2.50;;;;;;;;;;5030606;28;20466;-80
2023/05/20 11:31:23;;;;;;;3.67;2.53;;;;;;;;;;5032251;28;20460;-78
2023/05/20 11:33:50;;;;;;;2.90;2.60;;;;;;;;;;5036014;28;20819;-80
2023/05/20 11:36:17;;;;;;;2.80;2.03;;;;;;;;;;5028565;28;20460;-79
2023/05/20 11:38:45;;;;;;;3.60;2.07;;;;;;;;;;5027788;28;20831;-80
2023/05/20 11:41:13;;;;;;;4.10;2.07;;;;;;;;;;5033899;28;20455;-80
2023/05/20 11:43:41;;;;;;;4.53;2.00;;;;;;;;;;5032163;28;20536;-79
2023/05/20 11:46:08;;;;;;;2.87;2.00;;;;;;;;;;5024455;28;20515;-81
2023/05/20 11:48:34;;;;;;;4.07;2.40;;;;;;;;;;5031560;28;20475;-78
2023/05/20 11:51:01;;;;;;;2.90;2.47;;;;;;;;;;5029454;28;20468;-79
2023/05/20 11:53:27;;;;;;;5.80;2.73;;;;;;;;;;5034788;28;20817;-78
2023/05/20 11:55:54;;;;;;;5.17;2.20;;;;;;;;;;5030191;28;20476;-77
2023/05/20 11:58:23;;;;;;;2.70;2.50;;;;;;;;;;5026083;28;20475;-78
2023/05/20 12:00:49;;;;;;;4.17;2.00;;;;;;;;;;5030869;28;20483;-78
2023/05/20 12:03:16;;;;;;;2.73;2.23;;;;;;;;;;5013821;28;20520;-78
2023/05/20 12:05:42;;;;;;;2.53;1.97;;;;;;;;;;5014128;28;20481;-78
2023/05/20 12:08:08;;;;;;;4.70;2.33;;;;;;;;;;5027818;28;20469;-78
2023/05/20 12:10:36;;;;;;;3.63;2.33;;;;;;;;;;5031671;28;20476;-80
2023/05/20 12:13:02;;;;;;;3.80;2.30;;;;;;;;;;5032103;28;21009;-80
2023/05/20 12:15:30;;;;;;;3.63;2.00;;;;;;;;;;5030850;28;20469;-80
2023/05/20 12:17:56;;;;;;;4.00;2.23;;;;;;;;;;5029827;28;20851;-80
2023/05/20 12:20:24;;;;;;;1.67;1.57;;;;;;;;;;5030883;28;20990;-80
2023/05/20 12:22:50;;;;;;;3.00;2.00;;;;;;;;;;5032220;28;20532;-79
2023/05/20 12:25:18;;;;;;;2.90;2.13;;;;;;;;;;5034173;28;20468;-79
2023/05/20 12:27:46;;;;;;;2.90;1.60;;;;;;;;;;5030561;28;20572;-79
2023/05/20 12:30:15;;;;;;;2.60;1.70;;;;;;;;;;5011173;28;20514;-80
2023/05/20 12:32:43;;;;;;;5.80;2.70;;;;;;;;;;5028481;28;20460;-79
2023/05/20 12:35:10;;;;;;;2.33;2.07;;;;;;;;;;5030345;28;20492;-80
2023/05/20 12:37:37;;;;;;;5.13;2.23;;;;;;;;;;5034736;28;20971;-80
2023/05/20 12:40:06;;;;;;;4.67;2.43;;;;;;;;;;5026214;28;21022;-80
2023/05/20 12:42:33;;;;;;;4.87;2.60;;;;;;;;;;5029217;28;20862;-79
2023/05/20 12:44:59;;;;;;;2.17;1.90;;;;;;;;;;5025597;28;20476;-80
2023/05/20 12:47:25;;;;;;;3.27;1.87;;;;;;;;;;5029456;28;20468;-80
2023/05/20 12:49:53;;;;;;;1.63;1.53;;;;;;;;;;5012272;28;20492;-80
2023/05/20 12:52:21;;;;;;;1.97;1.77;;;;;;;;;;5027987;28;20460;-79
2023/05/20 12:54:47;;;;;;;2.87;2.50;;;;;;;;;;5030005;28;20565;-80
2023/05/20 12:57:13;;;;;;;2.40;1.43;;;;;;;;;;5008988;28;20458;-79
2023/05/20 12:59:40;;;;;;;5.13;2.20;;;;;;;;;;5021238;28;20465;-80
2023/05/20 13:02:06;;;;;;;4.00;2.00;;;;;;;;;;5030997;28;20820;-79
2023/05/20 13:04:33;;;;;;;3.80;1.93;;;;;;;;;;5030381;28;20435;-80
2023/05/20 13:07:01;;;;;;;2.40;2.00;;;;;;;;;;5043564;28;20500;-80
2023/05/20 13:09:27;;;;;;;2.20;1.73;;;;;;;;;;5031880;28;20492;-79
2023/05/20 13:11:55;;;;;;;2.50;2.30;;;;;;;;;;5028828;28;20821;-80
2023/05/20 13:14:22;;;;;;;2.30;1.70;;;;;;;;;;5033892;28;20469;-79
2023/05/20 13:16:49;;;;;;;2.73;2.27;;;;;;;;;;5025860;28;20450;-79
2023/05/20 13:19:15;;;;;;;2.57;2.00;;;;;;;;;;5024310;28;20982;-79
2023/05/20 13:21:41;;;;;;;2.37;1.80;;;;;;;;;;5031989;28;20460;-79
2023/05/20 13:24:09;;;;;;;4.27;2.27;;;;;;;;;;5034521;28;20435;-80
2023/05/20 13:26:35;;;;;;;3.90;2.30;;;;;;;;;;5029234;28;20469;-80
2023/05/20 13:29:02;;;;;;;3.37;1.97;;;;;;;;;;5021349;28;20465;-80
2023/05/20 13:31:28;;;;;;;3.50;2.20;;;;;;;;;;5033157;28;20503;-79
2023/05/20 13:33:57;;;;;;;2.00;1.77;;;;;;;;;;5033507;28;20448;-80
2023/05/20 13:36:24;;;;;;;3.53;1.80;;;;;;;;;;5031088;28;20501;-79
2023/05/20 13:38:50;;;;;;;4.30;1.70;;;;;;;;;;5010006;28;20465;-80
2023/05/20 13:41:18;;;;;;;3.00;2.30;;;;;;;;;;5031412;28;20453;-79
2023/05/20 13:43:45;;;;;;;2.17;1.90;;;;;;;;;;5026036;28;20452;-79
2023/05/20 13:46:12;;;;;;;5.27;2.30;;;;;;;;;;5031592;28;20524;-80
2023/05/20 13:48:38;;;;;;;2.63;2.03;;;;;;;;;;5015823;28;20480;-79
2023/05/20 13:51:05;;;;;;;3.50;2.23;;;;;;;;;;5029003;28;20433;-80
2023/05/20 13:53:31;;;;;;;18.80;4.07;;;;;;;;;;5033169;28;20479;-79
2023/05/20 13:55:58;;;;;;;5.17;2.00;;;;;;;;;;5027121;28;20476;-79
2023/05/20 13:58:26;;;;;;;2.30;2.10;;;;;;;;;;5019235;28;20468;-81
2023/05/20 14:00:53;;;;;;;4.43;2.00;;;;;;;;;;5022863;28;20569;-80
2023/05/20 14:03:19;;;;;;;4.20;2.17;;;;;;;;;;5033084;28;20471;-79
2023/05/20 14:05:46;;;;;;;2.40;2.20;;;;;;;;;;5029874;28;20480;-79
2023/05/20 14:08:12;;;;;;;4.57;2.57;;;;;;;;;;5023209;28;20481;-81
2023/05/20 14:10:38;;;;;;;5.03;2.07;;;;;;;;;;5033021;28;20477;-81
2023/05/20 14:13:05;;;;;;;6.93;2.20;;;;;;;;;;5033858;28;20453;-81
2023/05/20 14:15:33;;;;;;;4.47;2.40;;;;;;;;;;5036247;28;20482;-81
2023/05/20 14:17:59;;;;;;;3.57;2.37;;;;;;;;;;5033602;28;20488;-81
2023/05/20 14:20:25;;;;;;;4.43;1.90;;;;;;;;;;5031621;28;20995;-81
2023/05/20 14:22:52;;;;;;;3.20;2.00;;;;;;;;;;5028321;28;20458;-79
2023/05/20 14:25:18;;;;;;;7.20;2.27;;;;;;;;;;5025479;28;20477;-79
2023/05/20 14:27:45;;;;;;;3.50;1.93;;;;;;;;;;5031018;28;20490;-79
2023/05/20 14:30:13;;;;;;;4.03;2.50;;;;;;;;;;5033136;28;20469;-79
2023/05/20 14:32:41;;;;;;;4.07;2.00;;;;;;;;;;5035761;28;20453;-80
2023/05/20 14:35:08;;;;;;;6.10;2.40;;;;;;;;;;5032698;28;21024;-79
2023/05/20 14:37:34;;;;;;;3.13;1.90;;;;;;;;;;5030483;28;20500;-80
2023/05/20 14:40:01;;;;;;;3.40;2.40;;;;;;;;;;5031006;28;20472;-80
2023/05/20 14:42:28;;;;;;;7.00;2.47;;;;;;;;;;5029564;28;20864;-79